createdAt,value
2023-05-15T00:02:10.480Z,8.38
2023-05-15T00:04:37.309Z,8.38
2023-05-15T00:07:04.450Z,8.38
2023-05-15T00:09:31.398Z,8.34
2023-05-15T00:12:00.434Z,8.30
2023-05-15T00:14:27.142Z,8.34
2023-05-15T00:16:56.944Z,8.38
2023-05-15T00:19:23.853Z,8.40
2023-05-15T00:21:50.642Z,8.43
2023-05-15T00:24:17.460Z,8.44
2023-05-15T00:26:48.650Z,8.60
2023-05-15T00:29:18.072Z,8.65
2023-05-15T00:31:47.635Z,8.68
2023-05-15T00:34:17.523Z,8.70
2023-05-15T00:36:51.420Z,8.74
2023-05-15T00:39:18.383Z,8.68
2023-05-15T00:41:48.537Z,8.69
2023-05-15T00:44:22.988Z,8.66
2023-05-15T00:46:53.404Z,8.66
2023-05-15T00:49:27.660Z,8.60
2023-05-15T00:51:58.181Z,8.60
2023-05-15T00:54:28.341Z,8.53
2023-05-15T00:57:01.819Z,8.49
2023-05-15T00:59:31.921Z,8.43
2023-05-15T01:01:59.217Z,8.42
2023-05-15T01:04:26.393Z,8.43
2023-05-15T01:07:01.885Z,8.49
2023-05-15T01:09:32.411Z,8.56
2023-05-15T01:12:02.445Z,8.62
2023-05-15T01:14:29.269Z,8.72
2023-05-15T01:16:58.826Z,8.78
2023-05-15T01:19:29.102Z,8.85
2023-05-15T01:22:31.742Z,8.83
2023-05-15T01:25:54.774Z,8.82
2023-05-15T01:28:40.106Z,8.78
2023-05-15T01:31:24.483Z,8.73
2023-05-15T01:34:02.920Z,8.70
2023-05-15T01:36:51.726Z,8.67
2023-05-15T01:39:32.892Z,8.65
2023-05-15T01:42:19.414Z,8.63
2023-05-15T01:45:08.354Z,8.64
2023-05-15T01:47:50.330Z,8.60
2023-05-15T01:50:21.486Z,8.58
2023-05-15T01:53:06.073Z,8.58
2023-05-15T01:55:34.791Z,8.60
2023-05-15T01:58:07.569Z,8.63
2023-05-15T02:00:38.273Z,8.61
2023-05-15T02:03:10.167Z,8.58
2023-05-15T02:05:39.402Z,8.55
2023-05-15T02:08:10.888Z,8.53
2023-05-15T02:10:39.553Z,8.46
2023-05-15T02:13:11.481Z,8.41
2023-05-15T02:15:39.270Z,8.38
2023-05-15T02:18:12.321Z,8.33
2023-05-15T02:20:39.083Z,8.31
2023-05-15T02:23:09.164Z,8.28
2023-05-15T02:26:16.211Z,8.25
2023-05-15T02:29:18.426Z,8.24
2023-05-15T02:32:24.047Z,8.19
2023-05-15T02:35:47.948Z,8.14
2023-05-15T02:38:42.092Z,8.10
2023-05-15T02:41:12.085Z,8.06
2023-05-15T02:43:46.939Z,8.06
2023-05-15T02:46:15.410Z,8.06
2023-05-15T02:48:56.788Z,8.04
2023-05-15T02:51:26.134Z,8.10
2023-05-15T02:53:55.118Z,8.07
2023-05-15T02:56:22.370Z,8.05
2023-05-15T02:58:49.722Z,8.03
2023-05-15T03:01:16.536Z,8.02
2023-05-15T03:03:43.366Z,8.00
2023-05-15T03:06:10.298Z,7.98
2023-05-15T03:08:37.006Z,7.96
2023-05-15T03:11:05.507Z,7.92
2023-05-15T03:13:32.486Z,7.89
2023-05-15T03:16:02.077Z,7.86
2023-05-15T03:18:28.965Z,7.80
2023-05-15T03:20:55.966Z,7.78
2023-05-15T03:23:22.925Z,7.75
2023-05-15T03:25:49.826Z,7.75
2023-05-15T03:28:16.770Z,7.71
2023-05-15T03:30:49.198Z,7.72
2023-05-15T03:33:16.026Z,7.76
2023-05-15T03:35:42.918Z,7.77
2023-05-15T03:38:09.677Z,7.78
2023-05-15T03:40:42.045Z,7.81
2023-05-15T03:43:08.937Z,7.85
2023-05-15T03:45:41.855Z,7.92
2023-05-15T03:48:08.868Z,7.95
2023-05-15T03:50:40.296Z,8.02
2023-05-15T03:53:07.664Z,8.03
2023-05-15T03:55:38.564Z,8.07
2023-05-15T03:58:19.214Z,8.14
2023-05-15T04:00:46.537Z,8.17
2023-05-15T04:03:13.804Z,8.20
2023-05-15T04:05:40.995Z,8.28
2023-05-15T04:08:10.042Z,8.31
2023-05-15T04:10:42.754Z,8.32
2023-05-15T04:13:09.513Z,8.37
2023-05-15T04:15:54.719Z,8.40
2023-05-15T04:18:21.514Z,8.53
2023-05-15T04:20:48.554Z,8.58
2023-05-15T04:23:16.779Z,8.61
2023-05-15T04:25:46.707Z,8.67
2023-05-15T04:28:14.970Z,8.73
2023-05-15T04:30:42.181Z,8.92
2023-05-15T04:33:09.026Z,9.08
2023-05-15T04:35:35.862Z,9.19
2023-05-15T05:37:38.751Z,15.66
2023-05-15T05:59:19.581Z,17.67
2023-05-15T06:15:43.094Z,17.89
2023-05-15T06:18:09.929Z,17.03
2023-05-15T06:21:02.113Z,16.35
2023-05-15T06:23:28.967Z,15.77
2023-05-15T06:25:58.598Z,15.38
2023-05-15T06:28:26.394Z,14.91
2023-05-15T06:31:02.053Z,14.65
2023-05-15T06:33:29.208Z,14.50
2023-05-15T06:35:56.251Z,14.49
2023-05-15T06:38:23.036Z,14.43
2023-05-15T06:40:49.794Z,14.51
2023-05-15T06:43:16.583Z,14.49
2023-05-15T06:45:43.376Z,14.60
2023-05-15T06:48:10.140Z,14.67
2023-05-15T06:50:37.204Z,14.75
2023-05-15T06:53:08.471Z,14.88
2023-05-15T06:55:36.537Z,15.04
2023-05-15T06:58:03.308Z,15.16
2023-05-15T07:00:30.971Z,15.19
2023-05-15T07:02:57.969Z,15.41
2023-05-15T07:05:25.325Z,16.26
2023-05-15T07:07:55.719Z,16.72
2023-05-15T07:10:22.703Z,16.77
2023-05-15T07:12:54.885Z,16.84
2023-05-15T07:15:24.371Z,16.95
2023-05-15T07:17:51.787Z,17.08
2023-05-15T07:20:21.876Z,17.74
2023-05-15T07:22:56.462Z,18.72
2023-05-15T07:25:25.828Z,19.54
2023-05-15T07:27:54.216Z,19.93
2023-05-15T07:30:21.367Z,19.61
2023-05-15T07:32:48.164Z,20.07
2023-05-15T07:35:15.454Z,20.59
2023-05-15T07:37:42.350Z,20.79
2023-05-15T07:40:09.770Z,21.13
2023-05-15T07:42:36.528Z,21.30
2023-05-15T07:45:03.404Z,21.22
2023-05-15T07:47:33.423Z,21.19
2023-05-15T07:50:00.507Z,20.90
2023-05-15T07:52:29.805Z,21.08
2023-05-15T07:54:59.152Z,21.28
2023-05-15T07:57:26.538Z,21.60
2023-05-15T07:59:56.689Z,21.10
2023-05-15T08:02:23.949Z,20.47
2023-05-15T08:04:50.817Z,19.62
2023-05-15T08:07:17.720Z,19.23
2023-05-15T08:09:44.802Z,19.13
2023-05-15T08:12:23.654Z,19.53
2023-05-15T08:14:56.882Z,19.84
2023-05-15T08:17:25.927Z,20.52
2023-05-15T08:19:56.120Z,20.39
2023-05-15T08:22:23.251Z,19.73
2023-05-15T08:24:50.369Z,19.41
2023-05-15T08:27:17.588Z,20.36
2023-05-15T08:29:45.089Z,20.85
2023-05-15T08:32:11.976Z,21.47
2023-05-15T08:34:41.097Z,22.27
2023-05-15T08:37:11.610Z,22.62
2023-05-15T08:39:41.096Z,22.77
2023-05-15T08:42:55.114Z,22.76
2023-05-15T08:45:22.819Z,23.25
2023-05-15T08:47:49.956Z,23.62
2023-05-15T08:50:17.772Z,23.49
2023-05-15T08:52:49.697Z,22.75
2023-05-15T08:55:17.997Z,22.48
2023-05-15T08:57:49.012Z,22.20
2023-05-15T09:00:21.804Z,21.57
2023-05-15T09:02:48.702Z,21.66
2023-05-15T09:05:15.809Z,21.25
2023-05-15T09:07:50.773Z,20.63
2023-05-15T09:10:21.661Z,20.44
2023-05-15T09:13:03.658Z,20.28
2023-05-15T09:15:33.322Z,20.30
2023-05-15T09:18:12.610Z,20.34
2023-05-15T09:20:45.384Z,20.29
2023-05-15T09:23:32.179Z,20.14
2023-05-15T09:26:02.940Z,20.04
2023-05-15T09:28:33.903Z,19.98
2023-05-15T09:31:11.991Z,19.98
2023-05-15T09:34:12.096Z,19.73
2023-05-15T09:36:45.064Z,19.58
2023-05-15T09:39:31.803Z,19.59
2023-05-15T09:42:15.384Z,19.67
2023-05-15T09:44:44.589Z,19.70
2023-05-15T09:47:16.962Z,19.67
2023-05-15T09:49:45.518Z,19.74
2023-05-15T09:52:19.376Z,19.84
2023-05-15T09:55:07.835Z,20.02
2023-05-15T09:57:34.893Z,20.09
2023-05-15T10:00:14.761Z,20.25
2023-05-15T10:02:50.973Z,20.26
2023-05-15T10:05:28.632Z,20.31
2023-05-15T10:08:03.486Z,20.84
2023-05-15T10:10:31.828Z,21.19
2023-05-15T10:13:08.256Z,21.42
2023-05-15T10:15:36.314Z,21.55
2023-05-15T10:18:21.722Z,21.84
2023-05-15T10:20:49.844Z,22.03
2023-05-15T10:23:20.740Z,22.14
2023-05-15T10:26:13.375Z,21.91
2023-05-15T10:28:46.813Z,21.98
2023-05-15T10:31:20.334Z,22.06
2023-05-15T10:33:54.302Z,22.24
2023-05-15T10:36:22.293Z,22.40
2023-05-15T10:38:51.580Z,22.27
2023-05-15T10:41:23.914Z,21.92
2023-05-15T10:44:03.388Z,21.79
2023-05-15T10:46:35.727Z,21.86
2023-05-15T10:49:10.571Z,21.68
2023-05-15T10:51:44.436Z,21.98
2023-05-15T10:54:15.011Z,22.97
2023-05-15T10:56:59.979Z,23.97
2023-05-15T10:59:41.537Z,24.11
2023-05-15T11:02:29.836Z,23.98
2023-05-15T11:05:14.435Z,23.69
2023-05-15T11:07:45.494Z,24.22
2023-05-15T11:10:32.660Z,24.91
2023-05-15T11:13:02.622Z,25.25
2023-05-15T11:15:47.509Z,25.03
2023-05-15T11:18:20.006Z,24.82
2023-05-15T11:21:01.331Z,25.30
2023-05-15T11:23:44.806Z,25.40
2023-05-15T11:26:17.007Z,25.37
2023-05-15T11:28:55.440Z,25.25
2023-05-15T11:31:37.122Z,25.02
2023-05-15T11:34:10.763Z,25.01
2023-05-15T11:36:40.141Z,25.31
2023-05-15T11:39:15.372Z,25.70
2023-05-15T11:41:43.415Z,25.00
2023-05-15T11:44:12.069Z,24.71
2023-05-15T11:46:40.712Z,24.00
2023-05-15T11:49:11.356Z,23.14
2023-05-15T11:51:46.674Z,22.82
2023-05-15T11:54:17.839Z,22.91
2023-05-15T11:57:27.695Z,23.01
2023-05-15T11:59:57.911Z,23.33
2023-05-15T12:02:25.027Z,23.86
2023-05-15T12:05:00.474Z,24.13
2023-05-15T12:07:27.285Z,24.57
2023-05-15T12:09:58.079Z,24.71
2023-05-15T12:12:32.241Z,24.73
2023-05-15T12:15:00.196Z,24.50
2023-05-15T12:17:33.307Z,24.30
2023-05-15T12:20:08.928Z,24.25
2023-05-15T12:22:39.670Z,24.31
2023-05-15T12:25:10.921Z,24.47
2023-05-15T12:27:40.933Z,24.80
2023-05-15T12:30:21.855Z,25.21
2023-05-15T12:32:50.400Z,24.97
2023-05-15T12:35:20.511Z,25.46
2023-05-15T12:37:47.512Z,25.94
2023-05-15T12:40:15.849Z,26.03
2023-05-15T12:42:45.609Z,26.57
2023-05-15T12:45:19.817Z,26.89
2023-05-15T12:47:51.194Z,27.02
2023-05-15T12:50:23.446Z,27.14
2023-05-15T12:52:55.620Z,26.85
2023-05-15T12:58:19.350Z,25.59
2023-05-15T13:00:48.005Z,25.99
2023-05-15T13:03:18.483Z,26.61
2023-05-15T13:05:46.593Z,26.14
2023-05-15T13:08:26.998Z,25.71
2023-05-15T13:11:01.101Z,25.29
2023-05-15T13:14:00.556Z,25.06
2023-05-15T13:16:36.868Z,24.84
2023-05-15T13:19:06.692Z,24.56
2023-05-15T13:21:36.461Z,24.52
2023-05-15T13:24:04.363Z,24.87
2023-05-15T13:26:32.293Z,25.10
2023-05-15T13:29:02.171Z,25.38
2023-05-15T13:31:29.513Z,25.88
2023-05-15T13:33:56.798Z,26.33
2023-05-15T13:36:23.768Z,26.75
2023-05-15T13:38:54.227Z,26.67
2023-05-15T13:41:21.205Z,27.01
2023-05-15T13:43:49.467Z,27.07
2023-05-15T13:46:18.886Z,27.08
2023-05-15T13:48:45.791Z,26.88
2023-05-15T13:51:15.710Z,26.30
2023-05-15T13:53:47.087Z,26.47
2023-05-15T13:56:21.717Z,26.26
2023-05-15T13:58:48.466Z,25.69
2023-05-15T14:01:15.345Z,25.68
2023-05-15T14:03:44.453Z,25.64
2023-05-15T14:06:14.335Z,24.99
2023-05-15T14:08:52.927Z,24.24
2023-05-15T14:11:25.601Z,23.84
2023-05-15T14:13:52.762Z,23.53
2023-05-15T14:16:28.821Z,23.93
2023-05-15T14:18:55.845Z,24.87
2023-05-15T14:21:28.037Z,25.19
2023-05-15T14:24:05.590Z,25.59
2023-05-15T14:26:49.250Z,26.60
2023-05-15T14:29:16.104Z,26.61
2023-05-15T14:31:50.559Z,26.33
2023-05-15T14:34:30.969Z,25.39
2023-05-15T14:36:58.070Z,24.97
2023-05-15T14:39:28.415Z,24.51
2023-05-15T14:41:57.742Z,24.26
2023-05-15T14:44:24.846Z,24.21
2023-05-15T14:47:25.114Z,24.33
2023-05-15T14:49:52.138Z,24.06
2023-05-15T14:52:24.518Z,23.90
2023-05-15T14:55:08.075Z,24.39
2023-05-15T14:57:43.509Z,24.52
2023-05-15T15:00:15.752Z,24.64
2023-05-15T15:02:51.425Z,24.74
2023-05-15T15:05:24.358Z,24.75
2023-05-15T15:08:10.826Z,25.03
2023-05-15T15:11:06.910Z,24.90
2023-05-15T15:13:36.848Z,24.84
2023-05-15T15:16:05.556Z,24.66
2023-05-15T15:18:47.278Z,24.29
2023-05-15T15:21:27.471Z,23.98
2023-05-15T15:24:00.698Z,23.60
2023-05-15T15:27:00.984Z,23.17
2023-05-15T15:29:39.135Z,22.71
2023-05-15T15:32:09.245Z,22.44
2023-05-15T15:34:36.423Z,22.24
2023-05-15T15:37:10.848Z,21.91
2023-05-15T15:39:40.695Z,21.75
2023-05-15T15:42:07.691Z,21.86
2023-05-15T15:44:34.914Z,21.90
2023-05-15T15:47:09.222Z,21.46
2023-05-15T15:49:36.208Z,21.71
2023-05-15T15:52:11.432Z,21.88
2023-05-15T15:54:55.760Z,21.91
2023-05-15T15:57:31.319Z,21.59
2023-05-15T15:59:58.295Z,21.18
2023-05-15T16:02:28.589Z,20.77
2023-05-15T16:04:58.668Z,20.39
2023-05-15T16:07:27.967Z,20.07
2023-05-15T16:10:10.882Z,20.01
2023-05-15T16:12:42.443Z,20.16
2023-05-15T16:15:26.281Z,19.96
2023-05-15T16:17:57.825Z,19.62
2023-05-15T16:20:44.888Z,19.37
2023-05-15T16:23:18.933Z,19.13
2023-05-15T16:25:45.840Z,18.84
2023-05-15T16:28:15.401Z,18.66
2023-05-15T16:30:51.548Z,18.42
2023-05-15T16:33:32.935Z,18.25
2023-05-15T16:35:59.913Z,18.13
2023-05-15T16:38:27.126Z,17.99
2023-05-15T16:40:56.754Z,17.87
2023-05-15T16:43:39.259Z,17.79
2023-05-15T16:46:11.371Z,17.66
2023-05-15T16:48:38.294Z,17.54
2023-05-15T16:51:09.697Z,17.44
2023-05-15T16:53:48.365Z,17.35
2023-05-15T16:56:15.866Z,17.33
2023-05-15T16:58:47.392Z,17.34
2023-05-15T17:01:14.737Z,17.36
2023-05-15T17:04:05.614Z,17.46
2023-05-15T17:06:32.901Z,17.53
2023-05-15T17:09:03.070Z,17.58
2023-05-15T17:11:44.750Z,17.64
2023-05-15T17:14:11.668Z,17.68
2023-05-15T17:16:38.806Z,17.58
2023-05-15T17:19:08.987Z,17.51
2023-05-15T17:21:41.141Z,17.41
2023-05-15T17:24:11.920Z,17.35
2023-05-15T17:26:47.829Z,17.24
2023-05-15T17:29:14.852Z,17.14
2023-05-15T17:31:44.344Z,17.06
2023-05-15T17:34:11.623Z,16.99
2023-05-15T17:36:50.405Z,16.91
2023-05-15T17:39:17.480Z,16.84
2023-05-15T17:41:47.000Z,16.81
2023-05-15T17:44:13.801Z,16.72
2023-05-15T17:46:43.687Z,16.67
2023-05-15T17:49:10.865Z,16.62
2023-05-15T17:51:43.810Z,16.53
2023-05-15T17:54:10.623Z,16.44
2023-05-15T17:56:37.640Z,16.31
2023-05-15T17:59:06.923Z,16.24
2023-05-15T18:01:33.854Z,16.19
2023-05-15T18:04:11.707Z,16.12
2023-05-15T18:06:39.136Z,16.00
2023-05-15T18:09:12.212Z,15.85
2023-05-15T18:11:45.212Z,15.75
2023-05-15T18:14:12.205Z,15.65
2023-05-15T18:16:39.280Z,15.54
2023-05-15T18:19:10.469Z,15.44
2023-05-15T18:21:38.103Z,15.37
2023-05-15T18:24:07.930Z,15.26
2023-05-15T18:26:34.960Z,15.21
2023-05-15T18:29:01.991Z,15.15
2023-05-15T18:31:32.477Z,15.10
2023-05-15T18:34:01.256Z,15.02
2023-05-15T18:36:31.466Z,14.97
2023-05-15T18:38:58.514Z,14.92
2023-05-15T18:41:30.982Z,14.82
2023-05-15T18:43:57.855Z,14.70
2023-05-15T18:46:28.509Z,14.63
2023-05-15T18:48:58.687Z,14.59
2023-05-15T18:51:35.871Z,14.51
2023-05-15T18:54:02.766Z,14.49
2023-05-15T18:56:29.763Z,14.49
2023-05-15T18:58:56.858Z,14.45
2023-05-15T19:01:31.614Z,14.42
2023-05-15T19:03:58.481Z,14.37
2023-05-15T19:06:31.193Z,14.31
2023-05-15T19:08:58.033Z,14.28
2023-05-15T19:11:25.180Z,14.25
2023-05-15T19:13:52.217Z,14.19
2023-05-15T19:16:19.149Z,14.14
2023-05-15T19:18:46.207Z,14.09
2023-05-15T19:21:18.591Z,14.05
2023-05-15T19:23:58.332Z,13.99
2023-05-15T19:26:31.132Z,13.89
2023-05-15T19:29:02.148Z,13.86
2023-05-15T19:31:34.838Z,13.80
2023-05-15T19:34:01.876Z,13.76
2023-05-15T19:36:28.778Z,13.70
2023-05-15T19:39:01.361Z,13.68
2023-05-15T19:41:31.517Z,13.56
2023-05-15T19:44:06.449Z,13.48
2023-05-15T19:46:33.328Z,13.41
2023-05-15T19:49:02.475Z,13.38
2023-05-15T19:51:33.162Z,13.33
2023-05-15T19:54:14.065Z,13.32
2023-05-15T19:56:41.864Z,13.28
2023-05-15T19:59:32.416Z,13.19
2023-05-15T20:02:02.930Z,13.13
2023-05-15T20:04:30.353Z,13.07
2023-05-15T20:07:00.436Z,13.02
2023-05-15T20:09:44.407Z,12.99
2023-05-15T20:12:11.632Z,12.91
2023-05-15T20:14:38.765Z,12.87
2023-05-15T20:17:32.533Z,12.79
2023-05-15T20:20:00.073Z,12.74
2023-05-15T20:22:36.728Z,12.70
2023-05-15T20:25:06.563Z,12.62
2023-05-15T20:27:34.151Z,12.55
2023-05-15T20:30:14.953Z,12.44
2023-05-15T20:33:06.409Z,12.35
2023-05-15T20:35:38.279Z,12.27
2023-05-15T20:38:11.369Z,12.22
2023-05-15T20:40:46.918Z,12.18
2023-05-15T20:43:29.349Z,12.06
2023-05-15T20:46:02.658Z,12.03
2023-05-15T20:48:32.633Z,12.01
2023-05-15T20:51:12.570Z,11.92
2023-05-15T20:53:39.631Z,11.86
2023-05-15T20:56:09.652Z,11.75
2023-05-15T20:58:36.505Z,11.67
2023-05-15T21:01:07.739Z,11.59
2023-05-15T21:03:35.299Z,11.56
2023-05-15T21:06:11.086Z,11.50
2023-05-15T21:08:38.125Z,11.44
2023-05-15T21:11:20.879Z,11.40
2023-05-15T21:13:59.620Z,11.36
2023-05-15T21:21:15.138Z,11.16
2023-05-15T21:24:11.686Z,11.11
2023-05-15T21:26:39.796Z,11.06
2023-05-15T21:29:10.124Z,11.00
2023-05-15T21:31:40.715Z,10.92
2023-05-15T21:34:41.891Z,10.82
2023-05-15T21:37:01.600Z,10.81
2023-05-15T21:39:32.050Z,10.70
2023-05-15T21:41:58.966Z,10.67
2023-05-15T21:44:25.937Z,10.62
2023-05-15T21:46:55.263Z,10.57
2023-05-15T21:49:24.696Z,10.46
2023-05-15T21:52:13.986Z,10.37
2023-05-15T21:54:44.566Z,10.29
2023-05-15T21:57:14.355Z,10.26
2023-05-15T21:59:44.781Z,10.24
2023-05-15T22:02:11.939Z,10.17
2023-05-15T22:04:44.403Z,10.13
2023-05-15T22:07:15.269Z,10.07
2023-05-15T22:09:45.084Z,9.96
2023-05-15T22:12:16.648Z,9.94
2023-05-15T22:14:57.825Z,9.89
2023-05-15T22:17:29.259Z,9.85
2023-05-15T22:20:11.619Z,9.75
2023-05-15T22:22:47.747Z,9.69
2023-05-15T22:25:14.853Z,9.62
2023-05-15T22:27:46.802Z,9.55
2023-05-15T22:30:14.018Z,9.50
2023-05-15T22:32:51.396Z,9.48
2023-05-15T22:35:19.129Z,9.42
2023-05-15T22:37:49.186Z,9.43
2023-05-15T22:40:16.140Z,9.38
2023-05-15T22:42:43.012Z,9.34
2023-05-15T22:45:20.505Z,9.28
2023-05-15T22:47:51.286Z,9.20
2023-05-15T22:50:27.604Z,9.09
2023-05-15T22:53:24.041Z,9.06
2023-05-15T22:55:51.142Z,8.95
2023-05-15T22:58:21.499Z,8.94
2023-05-15T23:00:48.642Z,8.89
2023-05-15T23:03:18.236Z,8.86
2023-05-15T23:06:03.222Z,8.81
2023-05-15T23:08:46.176Z,8.73
2023-05-15T23:11:16.148Z,8.67
2023-05-15T23:14:03.162Z,8.60
2023-05-15T23:16:36.706Z,8.59
2023-05-15T23:19:06.704Z,8.58
2023-05-15T23:21:44.581Z,8.49
2023-05-15T23:24:11.421Z,8.47
2023-05-15T23:26:38.650Z,8.40
2023-05-15T23:29:14.981Z,8.37
2023-05-15T23:31:56.328Z,8.33
2023-05-15T23:34:26.041Z,8.28
2023-05-15T23:37:01.185Z,8.25
2023-05-15T23:39:38.511Z,8.24
2023-05-15T23:42:12.595Z,8.21
2023-05-15T23:44:40.791Z,8.20
2023-05-15T23:47:28.924Z,8.17
2023-05-15T23:50:21.160Z,8.10
2023-05-15T23:52:51.481Z,8.11
2023-05-15T23:55:21.640Z,8.12
2023-05-15T23:57:51.628Z,8.10
